Time;durP1;ratioP1;P1;durP2;ratioP2;P2;SDS_P1;SDS_P2;PMS_P1;PMS_P2;Temp;Humidity;BMP_temperature;BMP_pressure;BME280_temperature;BME280_humidity;BME280_pressure;Samples;Min_cycle;Max_cycle;Signal;HPM_P1;HPM_P2
2022/03/24 00:01:15;;;;;;;;;;;;;;;21.60;36.34;102816.41;5054498;28;19944;-77
2022/03/24 00:03:41;;;;;;;;;;;;;;;21.59;36.37;102815.53;5054711;28;19925;-77
2022/03/24 00:06:06;;;;;;;;;;;;;;;21.59;36.71;102822.97;5054438;28;19967;-77
2022/03/24 00:08:31;;;;;;;;;;;;;;;21.57;36.67;102814.16;5054329;28;19928;-77
2022/03/24 00:10:58;;;;;;;;;;;;;;;21.57;36.44;102817.75;5054076;28;19971;-77
2022/03/24 00:13:23;;;;;;;;;;;;;;;21.56;36.41;102816.09;5053347;28;19921;-77
2022/03/24 00:15:48;;;;;;;;;;;;;;;21.55;36.52;102811.69;5069180;28;19920;-77
2022/03/24 00:18:13;;;;;;;;;;;;;;;21.55;36.37;102806.19;5054029;28;19924;-77
2022/03/24 00:20:39;;;;;;;;;;;;;;;21.54;36.59;102814.69;5053663;28;19921;-77
2022/03/24 00:23:04;;;;;;;;;;;;;;;21.53;36.46;102811.13;5053856;28;19925;-77
2022/03/24 00:25:29;;;;;;;;;;;;;;;21.52;36.40;102806.72;5054004;28;19940;-77
2022/03/24 00:27:55;;;;;;;;;;;;;;;21.52;36.72;102809.47;5053776;28;19912;-77
2022/03/24 00:30:20;;;;;;;;;;;;;;;21.51;36.71;102807.81;5053889;28;19921;-77
2022/03/24 00:32:45;;;;;;;;;;;;;;;21.51;36.67;102810.56;5053777;28;19912;-77
2022/03/24 00:35:11;;;;;;;;;;;;;;;21.50;36.64;102808.91;5053726;28;19921;-77
2022/03/24 00:37:36;;;;;;;;;;;;;;;21.49;36.73;102804.50;5053724;28;20009;-78
2022/03/24 00:40:06;;;;;;;;;;;;;;;21.48;36.79;102802.84;5069814;28;19920;-77
2022/03/24 00:42:32;;;;;;;;;;;;;;;21.48;36.57;102805.59;5054032;28;20249;-77
2022/03/24 00:44:57;;;;;;;;;;;;;;;21.49;36.53;102800.91;5053700;28;20436;-77
2022/03/24 00:47:23;;;;;;;;;;;;;;;21.47;36.68;102808.59;5053581;28;20423;-77
2022/03/24 00:49:48;;;;;;;;;;;;;;;21.47;36.73;102816.84;5069620;28;19971;-77
2022/03/24 00:52:14;;;;;;;;;;;;;;;21.47;36.63;102808.59;5053847;28;19960;-77
2022/03/24 00:54:40;;;;;;;;;;;;;;;21.46;36.68;102802.28;5054079;28;20322;-77
2022/03/24 00:57:06;;;;;;;;;;;;;;;21.44;36.73;102798.97;5053286;28;19916;-77
2022/03/24 00:59:32;;;;;;;;;;;;;;;21.45;36.67;102811.63;5053571;28;19968;-77
2022/03/24 01:01:59;;;;;;;;;;;;;;;21.45;36.36;102799.81;5053923;28;19929;-77
2022/03/24 01:04:24;;;;;;;;;;;;;;;21.43;36.62;102800.06;5053568;28;20011;-77
2022/03/24 01:06:49;;;;;;;;;;;;;;;21.42;36.68;102801.19;5053163;28;20012;-77
2022/03/24 01:09:14;;;;;;;;;;;;;;;21.42;36.75;102795.69;5053448;28;20364;-77
2022/03/24 01:11:40;;;;;;;;;;;;;;;21.42;36.84;102794.81;5053434;28;19927;-77
2022/03/24 01:14:07;;;;;;;;;;;;;;;21.41;36.65;102790.44;5053450;28;19951;-77
2022/03/24 01:16:33;;;;;;;;;;;;;;;21.39;36.63;102786.03;5053482;28;19921;-76
2022/03/24 01:18:58;;;;;;;;;;;;;;;21.39;36.56;102788.78;5036269;28;19978;-80
2022/03/24 01:21:23;;;;;;;;;;;;;;;21.39;36.56;102786.03;5053669;28;19917;-77
2022/03/24 01:23:48;;;;;;;;;;;;;;;21.38;36.58;102789.88;5068657;28;20018;-77
2022/03/24 01:26:15;;;;;;;;;;;;;;;21.38;36.75;102786.25;5055521;28;19925;-77
2022/03/24 01:28:41;;;;;;;;;;;;;;;21.37;36.52;102781.88;5056912;28;19921;-78
2022/03/24 01:31:08;;;;;;;;;;;;;;;21.36;36.69;102781.03;5057113;28;19917;-77
2022/03/24 01:33:34;;;;;;;;;;;;;;;21.37;36.49;102774.44;5039430;28;19943;-77
2022/03/24 01:35:59;;;;;;;;;;;;;;;21.37;36.70;102781.88;5056772;28;20396;-77
2022/03/24 01:38:25;;;;;;;;;;;;;;;21.36;36.70;102769.19;5057074;28;20373;-78
2022/03/24 01:40:51;;;;;;;;;;;;;;;21.35;36.80;102773.88;5056827;28;20431;-77
2022/03/24 01:43:17;;;;;;;;;;;;;;;21.35;36.85;102775.81;5057186;28;19916;-76
2022/03/24 01:45:43;;;;;;;;;;;;;;;21.34;36.53;102772.22;5057032;28;20368;-77
2022/03/24 01:48:08;;;;;;;;;;;;;;;21.34;36.83;102771.38;5056896;28;20016;-77
2022/03/24 01:50:34;;;;;;;;;;;;;;;21.34;36.49;102765.88;5056776;28;19936;-77
2022/03/24 01:52:59;;;;;;;;;;;;;;;21.33;36.58;102767.81;5056732;28;19972;-77
2022/03/24 01:55:24;;;;;;;;;;;;;;;21.33;36.59;102769.75;5056677;28;20063;-77
2022/03/24 01:57:50;;;;;;;;;;;;;;;21.32;36.83;102765.34;5056403;28;19936;-77
2022/03/24 02:00:15;;;;;;;;;;;;;;;21.32;36.81;102765.34;5056662;28;20285;-77
2022/03/24 02:02:42;;;;;;;;;;;;;;;21.32;36.54;102768.91;5057082;28;19924;-78
2022/03/24 02:05:07;;;;;;;;;;;;;;;21.30;36.78;102754.59;5039078;28;20028;-78
2022/03/24 02:07:34;;;;;;;;;;;;;;;21.30;36.43;102762.84;5038832;28;20396;-78
2022/03/24 02:09:59;;;;;;;;;;;;;;;21.30;36.68;102765.59;5056406;28;19968;-77
2022/03/24 02:12:25;;;;;;;;;;;;;;;21.31;36.71;102760.94;5071778;28;19920;-77
2022/03/24 02:14:51;;;;;;;;;;;;;;;21.30;36.61;102759.28;5056218;28;19940;-77
2022/03/24 02:17:20;;;;;;;;;;;;;;;21.29;36.62;102761.22;5056724;28;19927;-77
2022/03/24 02:19:45;;;;;;;;;;;;;;;21.28;36.60;102762.28;5056508;28;19921;-78
2022/03/24 02:22:10;;;;;;;;;;;;;;;21.28;36.80;102756.78;5056268;28;19928;-77
2022/03/24 02:24:37;;;;;;;;;;;;;;;21.28;36.75;102762.28;5056097;28;20344;-77
2022/03/24 02:27:02;;;;;;;;;;;;;;;21.27;36.82;102754.28;5055725;28;20369;-77
2022/03/24 02:29:28;;;;;;;;;;;;;;;21.26;36.96;102753.47;5056018;28;19921;-77
2022/03/24 02:31:53;;;;;;;;;;;;;;;21.26;36.83;102758.16;5038262;28;20007;-77
2022/03/24 02:37:07;;;;;;;;;;;;;;;21.25;36.69;102762.81;5054681;28;19924;-78
2022/03/24 02:39:32;;;;;;;;;;;;;;;21.25;36.77;102751.00;5037945;28;19939;-77
2022/03/24 02:41:59;;;;;;;;;;;;;;;21.24;36.72;102749.34;5037799;28;20368;-77
2022/03/24 02:44:27;;;;;;;;;;;;;;;21.24;36.92;102754.84;5056077;28;19916;-77
2022/03/24 02:46:55;;;;;;;;;;;;;;;21.23;36.82;102754.00;5055965;28;20012;-78
2022/03/24 02:49:24;;;;;;;;;;;;;;;21.23;36.75;102755.94;5055357;28;19995;-77
2022/03/24 02:51:51;;;;;;;;;;;;;;;21.22;36.93;102751.50;5056078;28;19923;-77
2022/03/24 02:54:16;;;;;;;;;;;;;;;21.22;36.76;102749.63;5055553;28;19971;-77
2022/03/24 02:56:42;;;;;;;;;;;;;;;21.22;36.86;102740.53;5037820;28;19920;-77
2022/03/24 02:59:07;;;;;;;;;;;;;;;21.21;36.79;102755.38;5055499;28;19978;-77
2022/03/24 03:01:38;;;;;;;;;;;;;;;21.21;36.76;102750.69;5055202;28;19924;-78
2022/03/24 03:04:03;;;;;;;;;;;;;;;21.21;36.79;102755.38;5055344;28;20015;-77
2022/03/24 03:06:29;;;;;;;;;;;;;;;21.20;36.83;102753.72;5037488;28;19967;-77
2022/03/24 03:08:54;;;;;;;;;;;;;;;21.20;36.72;102748.22;5055227;28;20349;-77
2022/03/24 03:11:22;;;;;;;;;;;;;;;21.20;36.92;102748.22;5037334;28;19917;-77
2022/03/24 03:13:48;;;;;;;;;;;;;;;21.20;36.72;102750.97;5038079;28;19924;-77
2022/03/24 03:16:13;;;;;;;;;;;;;;;21.18;36.92;102749.31;5055494;28;20330;-77
2022/03/24 03:18:42;;;;;;;;;;;;;;;21.17;36.94;102744.09;5054672;28;19917;-77
2022/03/24 03:21:09;;;;;;;;;;;;;;;21.17;36.83;102747.66;5055545;28;19921;-77
2022/03/24 03:23:34;;;;;;;;;;;;;;;21.16;36.83;102748.75;5054879;28;20352;-76
2022/03/24 03:25:59;;;;;;;;;;;;;;;21.16;36.80;102746.00;5055068;28;19923;-77
2022/03/24 03:28:25;;;;;;;;;;;;;;;21.15;36.73;102749.84;5054919;28;20017;-77
2022/03/24 03:30:50;;;;;;;;;;;;;;;21.15;36.80;102744.34;5036808;28;20055;-77
2022/03/24 03:33:15;;;;;;;;;;;;;;;21.15;36.98;102743.53;5036848;28;19916;-77
2022/03/24 03:35:41;;;;;;;;;;;;;;;21.14;36.94;102745.44;5054387;28;20295;-77
2022/03/24 03:38:10;;;;;;;;;;;;;;;21.14;36.68;102748.19;5054713;28;19925;-77
2022/03/24 03:40:35;;;;;;;;;;;;;;;21.13;36.66;102743.78;5054707;28;19920;-77
2022/03/24 03:43:01;;;;;;;;;;;;;;;21.14;36.98;102755.59;5037441;28;19975;-77
2022/03/24 03:45:26;;;;;;;;;;;;;;;21.13;36.66;102751.19;5054885;28;20353;-77
2022/03/24 03:47:52;;;;;;;;;;;;;;;21.12;36.87;102753.13;5054377;28;19990;-78
2022/03/24 03:50:17;;;;;;;;;;;;;;;21.12;36.93;102746.81;5054488;28;19921;-77
2022/03/24 03:52:43;;;;;;;;;;;;;;;21.11;36.97;102756.94;5054437;28;20346;-77
2022/03/24 03:55:10;;;;;;;;;;;;;;;21.11;36.89;102750.63;5036430;28;19928;-77
2022/03/24 03:57:35;;;;;;;;;;;;;;;21.10;36.80;102758.06;5054900;28;19971;-77
2022/03/24 04:00:52;;;;;;;;;;;;;;;21.11;36.95;102751.47;5054284;28;19917;-76
2022/03/24 04:02:46;;;;;;;;;;;;;;;21.10;36.77;102759.97;5053724;28;19916;-76
2022/03/24 04:05:11;;;;;;;;;;;;;;;21.10;37.14;102752.56;5054190;28;20000;-76
2022/03/24 04:07:36;;;;;;;;;;;;;;;21.09;37.00;102755.56;5069946;28;19927;-77
2022/03/24 04:10:02;;;;;;;;;;;;;;;21.09;36.92;102756.41;5053780;28;19921;-77
2022/03/24 04:12:27;;;;;;;;;;;;;;;21.08;36.69;102756.66;5036902;28;19924;-77
2022/03/24 04:14:52;;;;;;;;;;;;;;;21.08;36.66;102762.16;5054364;28;20023;-76
2022/03/24 04:17:18;;;;;;;;;;;;;;;21.08;36.91;102764.91;5069803;28;19979;-77
2022/03/24 04:19:44;;;;;;;;;;;;;;;21.08;37.01;102767.66;5054033;28;19975;-77
2022/03/24 04:22:09;;;;;;;;;;;;;;;21.07;37.02;102768.75;5054870;28;19921;-77
2022/03/24 04:24:34;;;;;;;;;;;;;;;21.06;36.82;102756.91;5054731;28;19924;-77
2022/03/24 04:27:00;;;;;;;;;;;;;;;21.06;36.97;102758.84;5054048;28;19927;-78
2022/03/24 04:29:25;;;;;;;;;;;;;;;21.05;36.72;102760.78;5069434;28;19921;-76
2022/03/24 04:31:51;;;;;;;;;;;;;;;21.05;36.97;102758.03;5053682;28;19916;-77
2022/03/24 04:34:16;;;;;;;;;;;;;;;21.05;37.04;102758.03;5053696;28;19917;-77
2022/03/24 04:36:41;;;;;;;;;;;;;;;21.04;37.02;102750.88;5069639;28;19964;-77
2022/03/24 04:39:07;;;;;;;;;;;;;;;21.05;36.91;102759.94;5053988;28;19928;-77
2022/03/24 04:41:32;;;;;;;;;;;;;;;21.03;37.03;102751.97;5054397;28;19921;-77
2022/03/24 04:43:58;;;;;;;;;;;;;;;21.03;36.77;102757.44;5035929;28;19936;-77
2022/03/24 04:46:24;;;;;;;;;;;;;;;21.03;36.75;102754.72;5053918;28;19928;-77
2022/03/24 04:48:49;;;;;;;;;;;;;;;21.03;37.01;102754.72;5053922;28;20028;-77
2022/03/24 04:51:16;;;;;;;;;;;;;;;21.02;36.87;102755.00;5035695;28;20281;-77
2022/03/24 04:53:42;;;;;;;;;;;;;;;21.02;36.94;102755.81;5053673;28;19917;-77
2022/03/24 04:56:08;;;;;;;;;;;;;;;21.01;36.79;102756.88;5053768;28;19995;-77
2022/03/24 04:58:34;;;;;;;;;;;;;;;21.01;36.74;102748.66;5053521;28;20372;-78
2022/03/24 05:01:00;;;;;;;;;;;;;;;21.00;37.09;102749.75;5055278;28;20356;-78
2022/03/24 05:03:25;;;;;;;;;;;;;;;21.01;36.85;102756.06;5073147;28;19924;-77
2022/03/24 05:05:50;;;;;;;;;;;;;;;21.00;36.82;102757.16;5057687;28;19921;-77
2022/03/24 05:08:16;;;;;;;;;;;;;;;21.00;36.87;102758.00;5039683;28;20019;-78
2022/03/24 05:10:41;;;;;;;;;;;;;;;21.00;37.02;102757.16;5073187;28;20019;-77
2022/03/24 05:13:06;;;;;;;;;;;;;;;20.99;37.05;102753.59;5072920;28;19921;-77
2022/03/24 05:15:32;;;;;;;;;;;;;;;20.99;36.84;102759.09;5039506;28;19917;-77
2022/03/24 05:17:57;;;;;;;;;;;;;;;20.98;37.00;102760.16;5057660;28;19917;-77
2022/03/24 05:20:23;;;;;;;;;;;;;;;20.98;36.87;102754.66;5057382;28;19928;-77
2022/03/24 05:22:48;;;;;;;;;;;;;;;20.97;37.00;102761.28;5057077;28;19932;-78
2022/03/24 05:25:14;;;;;;;;;;;;;;;20.97;36.76;102764.03;5057428;28;20430;-77
2022/03/24 05:27:39;;;;;;;;;;;;;;;20.96;36.89;102771.44;5057398;28;19920;-78
2022/03/24 05:30:04;;;;;;;;;;;;;;;20.96;36.94;102770.59;5038981;28;19943;-77
2022/03/24 05:32:30;;;;;;;;;;;;;;;20.95;37.09;102772.50;5038999;28;20003;-77
2022/03/24 05:34:55;;;;;;;;;;;;;;;20.95;36.98;102766.19;5039134;28;19952;-78
2022/03/24 05:37:21;;;;;;;;;;;;;;;20.95;36.84;102767.03;5056961;28;20280;-78
2022/03/24 05:39:46;;;;;;;;;;;;;;;20.95;36.69;102771.69;5057079;28;20311;-77
2022/03/24 05:42:11;;;;;;;;;;;;;;;20.94;36.94;102765.38;5056908;28;19979;-78
2022/03/24 05:44:37;;;;;;;;;;;;;;;20.94;37.08;102770.00;5056897;28;19921;-77
2022/03/24 05:47:02;;;;;;;;;;;;;;;20.93;36.95;102771.13;5057421;28;20015;-81
2022/03/24 05:49:28;;;;;;;;;;;;;;;20.93;36.88;102768.38;5056758;28;19974;-77
2022/03/24 05:51:53;;;;;;;;;;;;;;;20.92;36.91;102764.81;5056843;28;19970;-78
2022/03/24 05:54:19;;;;;;;;;;;;;;;20.92;36.93;102772.22;5072126;28;20360;-77
2022/03/24 05:56:45;;;;;;;;;;;;;;;20.92;37.05;102769.47;5056650;28;19928;-78
2022/03/24 05:59:11;;;;;;;;;;;;;;;20.91;37.05;102776.03;5038258;28;19923;-77
2022/03/24 06:01:37;;;;;;;;;;;;;;;20.91;36.98;102785.09;5056635;28;20003;-77
2022/03/24 06:04:03;;;;;;;;;;;;;;;20.92;36.95;102788.72;5056243;28;19923;-77
2022/03/24 06:06:30;;;;;;;;;;;;;;;20.92;36.72;102785.97;5056279;28;19956;-81
2022/03/24 06:08:57;;;;;;;;;;;;;;;20.92;36.89;102796.94;5056480;28;19917;-81
2022/03/24 06:11:24;;;;;;;;;;;;;;;20.92;36.90;102792.28;5038536;28;19925;-81
2022/03/24 06:13:49;;;;;;;;;;;;;;;20.92;36.93;102791.47;5056265;28;19982;-80
2022/03/24 06:16:14;;;;;;;;;;;;;;;20.90;37.04;102799.13;5038420;28;19925;-82
2022/03/24 06:18:40;;;;;;;;;;;;;;;20.90;37.10;102794.44;5054885;28;19921;-82
2022/03/24 06:21:07;;;;;;;;;;;;;;;20.91;37.09;102798.03;5056578;28;19917;-83
2022/03/24 06:23:32;;;;;;;;;;;;;;;20.91;37.19;102804.34;5056225;28;19925;-82
2022/03/24 06:25:58;;;;;;;;;;;;;;;20.92;36.78;102805.19;5054813;28;19924;-81
2022/03/24 06:28:23;;;;;;;;;;;;;;;20.93;37.15;102799.41;5056084;28;19971;-80
2022/03/24 06:30:49;;;;;;;;;;;;;;;20.95;37.33;102801.91;5071382;28;19964;-80
2022/03/24 06:33:16;;;;;;;;;;;;;;;20.96;37.16;102803.56;5038185;28;19925;-82
2022/03/24 06:35:41;;;;;;;;;;;;;;;20.97;36.97;102802.47;5071394;28;19921;-82
2022/03/24 06:38:07;;;;;;;;;;;;;;;20.97;37.17;102797.00;5054412;28;19921;-81
2022/03/24 06:40:32;;;;;;;;;;;;;;;20.97;37.23;102799.75;5055819;28;19921;-80
2022/03/24 06:42:59;;;;;;;;;;;;;;;20.98;37.24;102804.13;5072212;28;19924;-81
2022/03/24 06:45:24;;;;;;;;;;;;;;;20.99;37.20;102802.19;5055564;28;19923;-81
2022/03/24 06:47:49;;;;;;;;;;;;;;;20.99;37.27;102793.97;5071017;28;20015;-81
2022/03/24 06:50:15;;;;;;;;;;;;;;;20.99;37.19;102792.06;5070755;28;19921;-81
2022/03/24 06:52:41;;;;;;;;;;;;;;;20.99;37.05;102793.97;5055540;28;20002;-81
2022/03/24 06:55:07;;;;;;;;;;;;;;;20.99;37.15;102794.81;5037890;28;19995;-81
2022/03/24 06:57:32;;;;;;;;;;;;;;;20.99;37.07;102800.31;5055172;28;19966;-83
2022/03/24 06:59:58;;;;;;;;;;;;;;;20.99;37.15;102797.56;5055527;28;19923;-84
2022/03/24 07:02:23;;;;;;;;;;;;;;;20.99;37.28;102794.81;5055461;28;19929;-82
2022/03/24 07:04:49;;;;;;;;;;;;;;;21.00;37.21;102798.38;5055602;28;19921;-84
2022/03/24 07:07:14;;;;;;;;;;;;;;;21.00;37.27;102795.63;5038202;28;20284;-77
2022/03/24 07:09:40;;;;;;;;;;;;;;;21.00;37.32;102796.47;5055681;28;19921;-82
2022/03/24 07:12:05;;;;;;;;;;;;;;;21.00;37.05;102801.13;5037471;28;19917;-80
2022/03/24 07:14:30;;;;;;;;;;;;;;;21.00;37.21;102803.88;5055816;28;19919;-80
2022/03/24 07:16:56;;;;;;;;;;;;;;;21.00;37.21;102804.69;5070839;28;20276;-80
2022/03/24 07:19:21;;;;;;;;;;;;;;;21.00;37.02;102801.94;5055970;28;20284;-78
2022/03/24 07:21:46;;;;;;;;;;;;;;;21.01;37.08;102808.25;5071054;28;19921;-80
2022/03/24 07:24:12;;;;;;;;;;;;;;;21.02;37.18;102807.19;5054122;28;20391;-88
2022/03/24 07:26:38;;;;;;;;;;;;;;;21.00;37.37;102807.44;5070555;28;19928;-78
2022/03/24 07:29:04;;;;;;;;;;;;;;;21.01;37.38;102803.59;5036873;28;19917;-78
2022/03/24 07:31:29;;;;;;;;;;;;;;;21.01;37.49;102811.00;5054665;28;19924;-81
2022/03/24 07:33:56;;;;;;;;;;;;;;;21.02;37.23;102810.75;5070299;28;20357;-86
2022/03/24 07:36:22;;;;;;;;;;;;;;;21.02;37.49;102809.94;5054208;28;19920;-84
2022/03/24 07:38:48;;;;;;;;;;;;;;;21.03;37.52;102806.91;5036817;28;19966;-86
2022/03/24 07:41:13;;;;;;;;;;;;;;;21.03;37.42;102808.84;5036982;28;20285;-85
2022/03/24 07:43:39;;;;;;;;;;;;;;;21.03;37.51;102817.09;5070045;28;19931;-77
2022/03/24 07:46:04;;;;;;;;;;;;;;;21.03;37.64;102809.66;5054302;28;20348;-75
2022/03/24 07:48:30;;;;;;;;;;;;;;;21.03;37.64;102817.09;5053684;28;19921;-77
2022/03/24 07:50:56;;;;;;;;;;;;;;;21.04;37.63;102813.22;5054392;28;19916;-76
2022/03/24 07:53:28;;;;;;;;;;;;;;;21.04;37.37;102814.09;5054408;28;19916;-77
2022/03/24 07:55:54;;;;;;;;;;;;;;;21.04;37.33;102815.97;5036478;28;19923;-89
2022/03/24 07:58:21;;;;;;;;;;;;;;;21.04;37.43;102815.97;5054479;28;20037;-77
2022/03/24 08:00:46;;;;;;;;;;;;;;;21.04;37.45;102816.84;5069687;28;20006;-76
2022/03/24 08:03:13;;;;;;;;;;;;;;;21.04;37.64;102826.97;5054816;28;19964;-81
2022/03/24 08:05:38;;;;;;;;;;;;;;;21.04;37.44;102818.72;5037075;28;19924;-77
2022/03/24 08:08:04;;;;;;;;;;;;;;;21.05;37.53;102817.66;5036451;28;19920;-79
2022/03/24 08:10:29;;;;;;;;;;;;;;;21.04;37.41;102819.56;5053975;28;19964;-77
2022/03/24 08:12:54;;;;;;;;;;;;;;;21.04;37.42;102822.31;5053053;28;19927;-77
2022/03/24 08:15:20;;;;;;;;;;;;;;;21.04;37.62;102818.72;5053801;28;19921;-77
2022/03/24 08:17:45;;;;;;;;;;;;;;;21.04;37.48;102822.31;5069228;28;19921;-77
2022/03/24 08:20:11;;;;;;;;;;;;;;;21.04;37.37;102832.47;5069892;28;19928;-87
2022/03/24 08:22:36;;;;;;;;;;;;;;;21.03;37.30;102823.41;5054043;28;19928;-77
2022/03/24 08:25:01;;;;;;;;;;;;;;;21.03;37.50;102828.88;5069383;28;19978;-77
2022/03/24 08:27:26;;;;;;;;;;;;;;;21.04;37.51;102837.97;5053775;28;19967;-80
2022/03/24 08:29:52;;;;;;;;;;;;;;;21.03;37.38;102828.88;5036142;28;19917;-77
2022/03/24 08:32:17;;;;;;;;;;;;;;;21.03;37.44;102831.63;5053935;28;19921;-85
2022/03/24 08:34:43;;;;;;;;;;;;;;;21.03;37.46;102836.31;5053262;28;20053;-77
2022/03/24 08:37:08;;;;;;;;;;;;;;;21.03;37.32;102830.81;5054034;28;20278;-82
2022/03/24 08:39:33;;;;;;;;;;;;;;;21.02;37.05;102840.16;5035740;28;20032;-78
2022/03/24 08:41:59;;;;;;;;;;;;;;;21.02;37.48;102838.25;5053512;28;19931;-76
2022/03/24 08:44:24;;;;;;;;;;;;;;;21.02;37.25;102841.00;5054024;28;20346;-77
2022/03/24 08:46:49;;;;;;;;;;;;;;;21.02;37.40;102845.66;5053530;28;20372;-79
2022/03/24 08:49:15;;;;;;;;;;;;;;;21.00;37.08;102837.66;5053730;28;19925;-77
2022/03/24 08:51:41;;;;;;;;;;;;;;;21.02;37.19;102834.66;5053971;28;20319;-77
2022/03/24 08:54:06;;;;;;;;;;;;;;;21.02;37.32;102837.41;5054143;28;20299;-77
2022/03/24 08:56:31;;;;;;;;;;;;;;;21.01;37.10;102839.31;5053814;28;19927;-77
2022/03/24 08:58:57;;;;;;;;;;;;;;;21.01;37.32;102843.97;5053407;28;19917;-76
2022/03/24 09:01:22;;;;;;;;;;;;;;;21.00;37.21;102840.41;5053538;28;19921;-77
2022/03/24 09:03:49;;;;;;;;;;;;;;;21.01;37.24;102841.25;5054523;28;19921;-77
2022/03/24 09:06:15;;;;;;;;;;;;;;;21.00;37.18;102843.16;5053826;28;19921;-78
2022/03/24 09:08:40;;;;;;;;;;;;;;;21.00;37.26;102845.91;5035556;28;19921;-78
2022/03/24 09:11:06;;;;;;;;;;;;;;;21.00;37.25;102845.09;5052313;28;19921;-77
2022/03/24 09:13:31;;;;;;;;;;;;;;;21.00;37.05;102842.34;5053133;28;19920;-77
2022/03/24 09:15:56;;;;;;;;;;;;;;;21.00;37.28;102845.09;5053825;28;19998;-77
2022/03/24 09:18:21;;;;;;;;;;;;;;;21.00;37.11;102845.09;5053814;28;19920;-78
2022/03/24 09:20:47;;;;;;;;;;;;;;;21.00;37.21;102851.41;5053286;28;20364;-77
2022/03/24 09:23:12;;;;;;;;;;;;;;;20.99;37.08;102844.25;5035556;28;20011;-79
2022/03/24 09:25:38;;;;;;;;;;;;;;;20.99;37.08;102849.75;5051765;28;19932;-78
2022/03/24 09:28:03;;;;;;;;;;;;;;;20.99;36.86;102854.41;5053312;28;20015;-78
2022/03/24 09:30:29;;;;;;;;;;;;;;;20.98;36.77;102850.84;5053616;28;19931;-77
2022/03/24 09:32:54;;;;;;;;;;;;;;;20.99;36.80;102857.16;5053436;28;19953;-78
2022/03/24 09:35:20;;;;;;;;;;;;;;;20.99;36.77;102851.66;5053439;28;19921;-77
2022/03/24 09:37:45;;;;;;;;;;;;;;;20.98;36.73;102850.84;5053550;28;20369;-77
2022/03/24 09:40:11;;;;;;;;;;;;;;;20.97;36.74;102846.44;5054161;28;19920;-77
2022/03/24 09:42:38;;;;;;;;;;;;;;;20.98;36.95;102848.09;5053220;28;19924;-78
2022/03/24 09:45:05;;;;;;;;;;;;;;;20.98;36.77;102847.25;5053268;28;19924;-78
2022/03/24 09:47:30;;;;;;;;;;;;;;;20.98;36.81;102856.31;5055402;28;20003;-77
2022/03/24 09:49:56;;;;;;;;;;;;;;;20.97;36.51;102849.19;5072838;28;20063;-80
2022/03/24 09:52:22;;;;;;;;;;;;;;;20.96;36.72;102851.13;5038968;28;19928;-77
2022/03/24 09:54:47;;;;;;;;;;;;;;;20.96;36.52;102851.13;5057190;28;19982;-77
2022/03/24 09:57:13;;;;;;;;;;;;;;;20.98;36.67;102855.50;5056701;28;19999;-78
2022/03/24 09:59:39;;;;;;;;;;;;;;;20.97;36.48;102849.19;5057502;28;19916;-84
2022/03/24 10:02:05;;;;;;;;;;;;;;;20.97;36.42;102846.44;5039126;28;20011;-78
2022/03/24 10:04:50;;;;;;;;;;;;;;;20.96;36.21;102848.38;5038613;28;19944;-79
2022/03/24 10:07:20;;;;;;;;;;;;;;;20.95;36.43;102841.19;5056266;28;20000;-78
2022/03/24 10:09:47;;;;;;;;;;;;;;;20.95;36.40;102852.19;5038840;28;20381;-78
2022/03/24 10:12:23;;;;;;;;;;;;;;;20.95;36.11;102852.19;5056247;28;19924;-77
2022/03/24 10:14:57;;;;;;;;;;;;;;;20.96;36.16;102850.25;5056358;28;19971;-77
2022/03/24 10:17:22;;;;;;;;;;;;;;;20.95;36.10;102845.88;5038814;28;19956;-78
2022/03/24 10:19:57;;;;;;;;;;;;;;;20.94;36.05;102839.56;5056288;28;19979;-78
2022/03/24 10:22:22;;;;;;;;;;;;;;;20.94;36.09;102841.44;5056257;28;19924;-77
2022/03/24 10:24:47;;;;;;;;;;;;;;;20.95;36.18;102834.88;5071557;28;19925;-77
2022/03/24 10:27:19;;;;;;;;;;;;;;;20.94;35.93;102834.06;5071593;28;19975;-78
2022/03/24 10:29:47;;;;;;;;;;;;;;;20.95;35.87;102838.44;5056261;28;19916;-78
2022/03/24 10:32:16;;;;;;;;;;;;;;;20.95;35.92;102834.88;5038201;28;19920;-77
2022/03/24 10:34:43;;;;;;;;;;;;;;;20.95;36.14;102834.88;5038304;28;19917;-78
2022/03/24 10:37:13;;;;;;;;;;;;;;;20.94;36.04;102831.31;5038493;28;19917;-78
2022/03/24 10:39:40;;;;;;;;;;;;;;;20.94;35.72;102838.69;5038094;28;19917;-78
2022/03/24 10:42:16;;;;;;;;;;;;;;;20.94;35.88;102831.31;5055837;28;19957;-79
2022/03/24 10:44:59;;;;;;;;;;;;;;;20.94;35.79;102833.19;5055496;28;20277;-78
2022/03/24 10:47:35;;;;;;;;;;;;;;;20.94;35.81;102825.81;5055577;28;19940;-78
2022/03/24 10:50:18;;;;;;;;;;;;;;;20.94;35.69;102833.19;5055548;28;19920;-78
2022/03/24 10:52:43;;;;;;;;;;;;;;;20.95;35.89;102832.13;5055154;28;19967;-78
2022/03/24 10:55:08;;;;;;;;;;;;;;;20.95;35.80;102829.38;5055010;28;19999;-86
2022/03/24 10:57:35;;;;;;;;;;;;;;;20.94;35.81;102834.06;5054960;28;19929;-78
2022/03/24 11:00:03;;;;;;;;;;;;;;;20.94;35.94;102834.06;5037074;28;19916;-78
2022/03/24 11:02:29;;;;;;;;;;;;;;;20.94;35.76;102828.56;5055000;28;20011;-90
2022/03/24 11:04:58;;;;;;;;;;;;;;;20.95;35.59;102832.94;5055263;28;19963;-79
2022/03/24 11:07:24;;;;;;;;;;;;;;;20.94;35.74;102831.31;5055294;28;19917;-79
2022/03/24 11:09:50;;;;;;;;;;;;;;;20.95;35.63;102827.47;5037575;28;19920;-78
2022/03/24 11:12:22;;;;;;;;;;;;;;;20.96;35.81;102826.38;5055673;28;20283;-82
2022/03/24 11:14:50;;;;;;;;;;;;;;;20.96;35.54;102820.91;5055025;28;19921;-78
2022/03/24 11:17:16;;;;;;;;;;;;;;;20.96;35.71;102829.13;5054781;28;20020;-78
2022/03/24 11:19:41;;;;;;;;;;;;;;;20.96;35.61;102826.38;5070480;28;19984;-78
2022/03/24 11:22:11;;;;;;;;;;;;;;;20.97;35.56;102821.72;5055012;28;19994;-78
2022/03/24 11:24:37;;;;;;;;;;;;;;;20.96;35.68;102826.38;5054762;28;19921;-79
2022/03/24 11:27:02;;;;;;;;;;;;;;;20.96;35.55;102820.03;5070726;28;19921;-78
2022/03/24 11:29:28;;;;;;;;;;;;;;;20.96;35.81;102820.91;5054660;28;19921;-78
2022/03/24 11:31:53;;;;;;;;;;;;;;;20.98;35.74;102822.53;5054755;28;19924;-78
2022/03/24 11:34:18;;;;;;;;;;;;;;;20.98;35.83;102822.53;5054387;28;19927;-80
2022/03/24 11:36:43;;;;;;;;;;;;;;;20.98;35.61;102811.56;5070168;28;19928;-79
2022/03/24 11:39:11;;;;;;;;;;;;;;;20.99;35.30;102816.78;5070441;28;19925;-84
2022/03/24 11:41:42;;;;;;;;;;;;;;;20.99;35.42;102813.19;5036665;28;19971;-79
2022/03/24 11:44:12;;;;;;;;;;;;;;;20.98;35.58;102809.63;5054631;28;19923;-78
2022/03/24 11:46:53;;;;;;;;;;;;;;;20.99;35.49;102813.19;5055787;28;19916;-79
2022/03/24 11:49:22;;;;;;;;;;;;;;;20.98;35.46;102811.56;5036595;28;19917;-79
2022/03/24 11:52:08;;;;;;;;;;;;;;;20.99;35.41;102811.28;5054294;28;20427;-78
2022/03/24 11:54:35;;;;;;;;;;;;;;;21.00;35.29;102803.88;5026335;28;19917;-80
2022/03/24 11:57:19;;;;;;;;;;;;;;;20.99;35.14;102804.94;5037799;28;19917;-83
2022/03/24 11:59:45;;;;;;;;;;;;;;;20.99;35.22;102796.72;5036992;28;19967;-80
2022/03/24 12:02:14;;;;;;;;;;;;;;;20.99;35.45;102799.44;5070433;28;19928;-81
2022/03/24 12:04:50;;;;;;;;;;;;;;;20.98;35.52;102792.31;5036556;28;19924;-81
2022/03/24 12:07:17;;;;;;;;;;;;;;;20.98;35.30;102793.13;5037987;28;19916;-83
2022/03/24 12:09:56;;;;;;;;;;;;;;;20.99;35.23;102780.22;5052471;28;20359;-83
2022/03/24 12:12:21;;;;;;;;;;;;;;;21.00;35.59;102782.72;5053978;28;19917;-83
2022/03/24 12:14:47;;;;;;;;;;;;;;;21.00;35.22;102781.91;5052672;28;19927;-83
2022/03/24 12:17:15;;;;;;;;;;;;;;;21.02;35.06;102774.22;5054182;28;20373;-83
2022/03/24 12:19:53;;;;;;;;;;;;;;;21.03;35.59;102781.38;5053903;28;19923;-83
2022/03/24 12:22:29;;;;;;;;;;;;;;;21.03;35.43;102773.94;5053345;28;19920;-84
2022/03/24 12:25:00;;;;;;;;;;;;;;;21.03;35.49;102773.94;5053432;28;19928;-83
2022/03/24 12:27:30;;;;;;;;;;;;;;;21.04;35.47;102775.63;5053811;28;20400;-83
2022/03/24 12:30:11;;;;;;;;;;;;;;;21.05;35.50;102773.69;5054153;28;20373;-83
2022/03/24 12:32:36;;;;;;;;;;;;;;;21.05;35.58;102773.69;5035978;28;20277;-84
2022/03/24 12:35:03;;;;;;;;;;;;;;;21.06;35.50;102776.16;5069265;28;19920;-83